Pagrindinis puslapis
METAR-TAF:

METAR-TAF

Oro uostai :

New Stuyahok, Aliaska, Jungtinės Amerikos Valstijos

platuma: 59-27-06N, ilguma: 157-22-23W, Aukštis: 111 m

Dabartinis oras

Ataskaita buvo paskelbta 14 minutes, ne 20:32 UTC
Vėjas 16 kt iš Rytų/Šiaurės Rytų su gūsio iki 22 kt
Temperatūra 13°C
Drėgmė 67%
Slėgis 987 hPa
Matomumas: 16.1 km
Apsiniaukę ne aukštis 3000 ft

METAR: PANW 302032Z AUTO 06016G22KT 10SM OVC030 13/07 A2914 RMK AO2

Laikas: 12:46 (20:46 UTC)


TAF: trūkstamas

Orai ataskaitas ir orų prognozės (METAR, TAF).

turimą stotys yra geltonos ir raudonos taškus žemėlapyje.

Perkelti pele per norėdami pamatyti stoties vardą.

Tada spustelėkite, norėdami matyti oro stebėjimo ir prognozės.

Norėdami pakeisti žemėlapį: spustelėkite ant žalios mygtukų su juodo kryžiaus žemyn,; žalią mygtuką su brūkšneliu, jei norite nutolinti; arba žalių rodyklių gretimoms žemėlapius.


METAR-TAF: